»·PEaware :: N2494V KPSC-KGEG

N2494V :: KPSC-KGEG

FLIGHT INFORMATION

Flight Status: Arrived
Operator: Privately registered:
United States
More flights under this callsign
Pilot: Sally S. (18014)
Aircraft: Unknown
(DA62)
More flights by this aircraft type
Origin: KPSC Tri-Cities
United States
Destination: KGEG Spokane Intl
United States
More flights between these airports :: More routes between these airports
Route: +PSC V204 GEG
File this flight plan on PilotEdge
Remarks:
Altitude:
(Current/Filed)
5,000ft
Speed:
(Current/Filed)
165kts
Departed: 09-May-18 09:29 AM
Arrived: 09-May-18 10:51 AM
Distance/Time
Traveled:
104nm/1:21
Distance/Time
To Go:
Arrived

Flight Plot

Page will automatically refresh every two minutes.

Flight plan parsing failed; only flown route is shown


Map Options




Map Legend


Flown Route
Filed Route
Departure Airport
Arrival Airport
Navaid (VOR, NDB)
Fix

Horizontal Profiles

Position Reports

Time Latitude Longitude Heading Altitude Ground
Speed
09-May-18 09:00 46.266389 -119.106289 251 414ft 0kts
09-May-18 09:01 46.266389 -119.106289 251 414ft 0kts
09-May-18 09:02 46.266389 -119.106289 251 414ft 0kts
09-May-18 09:03 46.266389 -119.106289 251 414ft 0kts
09-May-18 09:04 46.266389 -119.106289 251 414ft 0kts
09-May-18 09:05 46.266389 -119.106289 251 414ft 0kts
09-May-18 09:06 46.266389 -119.106289 251 414ft 0kts
09-May-18 09:07 46.266389 -119.106289 251 414ft 0kts
09-May-18 09:08 46.266389 -119.106289 251 414ft 0kts
09-May-18 09:09 46.266389 -119.106289 251 414ft 0kts
09-May-18 09:10 46.266389 -119.106289 251 414ft 0kts
09-May-18 09:11 46.266389 -119.106289 251 414ft 0kts
09-May-18 09:12 46.266389 -119.106289 251 414ft 0kts
09-May-18 09:13 46.266389 -119.106289 251 414ft 0kts
09-May-18 09:14 46.266389 -119.106289 251 414ft 0kts
09-May-18 09:15 46.266389 -119.106289 251 414ft 0kts
09-May-18 09:16 46.266389 -119.106289 251 414ft 0kts
09-May-18 09:17 46.266389 -119.106289 251 414ft 0kts
09-May-18 09:18 46.266389 -119.106289 251 414ft 0kts
09-May-18 09:19 46.266347 -119.106458 248 414ft 0kts
09-May-18 09:20 46.266332 -119.106513 246 414ft 0kts
09-May-18 09:21 46.266332 -119.106513 246 414ft 0kts
09-May-18 09:22 46.266332 -119.106513 246 414ft 0kts
09-May-18 09:23 46.266332 -119.106513 246 414ft 0kts
09-May-18 09:24 46.266082 -119.108162 327 414ft 10kts
09-May-18 09:25 46.268637 -119.109211 314 414ft 11kts
09-May-18 09:26 46.269640 -119.110585 319 414ft 0kts
09-May-18 09:27 46.269639 -119.110583 319 414ft 0kts
09-May-18 09:28 46.270301 -119.112196 241 414ft 12kts
09-May-18 09:29 46.256034 -119.133391 224 1165ft 93kts
09-May-18 09:30 46.238787 -119.159562 224 2502ft 92kts
09-May-18 09:31 46.222114 -119.185682 224 3699ft 92kts
09-May-18 09:32 46.205475 -119.213002 233 4904ft 95kts
09-May-18 09:33 46.228655 -119.239556 2 5000ft 172kts
09-May-18 09:34 46.278707 -119.236033 3 4992ft 184kts
09-May-18 09:35 46.327964 -119.225211 47 4985ft 182kts
09-May-18 09:36 46.345671 -119.160404 79 4994ft 178kts
09-May-18 09:37 46.357393 -119.091891 79 4995ft 172kts
09-May-18 09:38 46.366095 -119.040361 79 4998ft 171kts
09-May-18 09:39 46.366095 -119.040361 79 4998ft 171kts
09-May-18 09:40 46.366095 -119.040361 79 4998ft 171kts
09-May-18 09:41 46.366095 -119.040361 79 4998ft 171kts
09-May-18 09:42 46.366095 -119.040361 79 4998ft 171kts
09-May-18 09:43 46.369603 -119.023586 60 4991ft 174kts
09-May-18 09:44 46.408104 -118.980825 36 4999ft 175kts
09-May-18 09:45 46.446922 -118.938908 36 4999ft 174kts
09-May-18 09:46 46.485547 -118.896654 36 5000ft 173kts
09-May-18 09:47 46.524412 -118.855741 35 5000ft 173kts
09-May-18 09:48 46.563438 -118.815309 34 5000ft 172kts
09-May-18 09:49 46.602179 -118.775096 35 5001ft 171kts
09-May-18 09:50 46.640980 -118.734738 35 5004ft 171kts
09-May-18 09:51 46.679810 -118.694282 35 5008ft 172kts
09-May-18 09:52 46.718745 -118.653642 35 5011ft 173kts
09-May-18 09:53 46.757883 -118.612694 34 4999ft 174kts
09-May-18 09:54 46.796804 -118.571915 34 4981ft 174kts
09-May-18 09:55 46.836003 -118.530785 34 4968ft 173kts
09-May-18 09:56 46.875028 -118.489766 34 4963ft 173kts
09-May-18 09:57 46.914056 -118.448613 36 4968ft 173kts
09-May-18 09:58 46.950550 -118.402612 40 4975ft 174kts
09-May-18 09:59 46.987025 -118.356079 41 4976ft 175kts
09-May-18 10:20 47.002506 -118.336306 42 4975ft 175kts
09-May-18 10:21 47.011545 -118.324762 41 4974ft 175kts
09-May-18 10:22 47.033495 -118.296654 42 4969ft 177kts
09-May-18 10:23 47.070743 -118.248933 41 4980ft 177kts
09-May-18 10:24 47.105792 -118.205158 41 4999ft 177kts
09-May-18 10:25 47.142869 -118.158949 41 4998ft 177kts
09-May-18 10:26 47.180511 -118.111973 40 4998ft 177kts
09-May-18 10:27 47.217162 -118.066202 41 4998ft 177kts
09-May-18 10:28 47.255026 -118.019671 40 4999ft 178kts
09-May-18 10:29 47.292725 -117.972795 40 4999ft 178kts
09-May-18 10:30 47.324574 -117.918165 54 4999ft 177kts
09-May-18 10:31 47.353944 -117.861235 54 4999ft 177kts
09-May-18 10:32 47.383739 -117.803465 54 4999ft 177kts
09-May-18 10:33 47.412623 -117.747447 54 5000ft 177kts
09-May-18 10:34 47.442564 -117.689365 54 5000ft 177kts
09-May-18 10:35 47.472341 -117.631578 54 5000ft 177kts
09-May-18 10:36 47.502205 -117.573604 54 5000ft 177kts
09-May-18 10:37 47.531187 -117.517239 53 5000ft 178kts
09-May-18 10:38 47.564504 -117.469337 43 5001ft 180kts
09-May-18 10:39 47.600782 -117.418949 43 4999ft 180kts
09-May-18 10:40 47.637163 -117.368229 43 5003ft 181kts
09-May-18 10:41 47.671562 -117.320031 43 4999ft 181kts
09-May-18 10:42 47.707662 -117.268938 43 4990ft 182kts
09-May-18 10:43 47.750271 -117.278718 324 4053ft 172kts
09-May-18 10:44 47.749795 -117.328610 252 3990ft 123kts
09-May-18 10:45 47.729436 -117.366398 246 3876ft 116kts
09-May-18 10:46 47.709786 -117.399425 227 3704ft 108kts
09-May-18 10:47 47.692566 -117.425672 225 3489ft 105kts
09-May-18 10:48 47.672128 -117.456545 224 3231ft 105kts
09-May-18 10:49 47.652841 -117.485657 224 3013ft 94kts
09-May-18 10:50 47.636197 -117.510774 224 2564ft 83kts
09-May-18 10:51 47.624853 -117.527629 225 2388ft 40kts
09-May-18 10:52 47.620744 -117.531989 142 2388ft 6kts
09-May-18 10:53 47.617862 -117.534526 89 2388ft 8kts
09-May-18 10:54 47.618518 -117.529331 12 2388ft 14kts
09-May-18 10:55 47.618877 -117.529156 15 2388ft 0kts
09-May-18 10:56 47.618877 -117.529156 15 2388ft 0kts
09-May-18 10:57 47.618877 -117.529156 15 2388ft 0kts
09-May-18 10:58 47.618877 -117.529156 15 2388ft 0kts
09-May-18 10:59 47.618877 -117.529156 15 2388ft 0kts
09-May-18 11:00 47.618877 -117.529156 15 2388ft 0kts
09-May-18 11:01 47.618877 -117.529156 15 2388ft 0kts
09-May-18 11:02 47.618877 -117.529156 15 2388ft 0kts
09-May-18 11:03 47.618877 -117.529156 15 2388ft 0kts
09-May-18 11:04 47.618877 -117.529156 15 2388ft 0kts
09-May-18 11:05 47.618877 -117.529156 15 2388ft 0kts

Navigation Log

Ident Type
Flight plan parsing failed, navigation log unavailable